sensor_id;sensor_type;location;lat;lon;timestamp;temperature;humidity
44731;DHT22;30458;47.448;19.032;2022-12-15T00:09:47;2.80;99.90
44731;DHT22;30458;47.448;19.032;2022-12-15T00:20:06;2.90;99.90
44731;DHT22;30458;47.448;19.032;2022-12-15T00:30:31;3.00;99.90
44731;DHT22;30458;47.448;19.032;2022-12-15T00:40:53;3.00;99.90
44731;DHT22;30458;47.448;19.032;2022-12-15T00:51:00;3.10;99.90
44731;DHT22;30458;47.448;19.032;2022-12-15T01:01:08;3.10;99.90
44731;DHT22;30458;47.448;19.032;2022-12-15T01:11:32;3.10;99.90
44731;DHT22;30458;47.448;19.032;2022-12-15T01:21:52;3.10;99.90
44731;DHT22;30458;47.448;19.032;2022-12-15T01:31:52;3.10;99.90
44731;DHT22;30458;47.448;19.032;2022-12-15T01:41:53;3.10;99.90
44731;DHT22;30458;47.448;19.032;2022-12-15T01:52:02;3.10;99.90
44731;DHT22;30458;47.448;19.032;2022-12-15T02:02:06;3.20;99.90
44731;DHT22;30458;47.448;19.032;2022-12-15T02:12:16;3.20;99.90
44731;DHT22;30458;47.448;19.032;2022-12-15T02:43:15;3.40;99.90
44731;DHT22;30458;47.448;19.032;2022-12-15T03:03:22;3.40;99.90
44731;DHT22;30458;47.448;19.032;2022-12-15T03:13:24;3.40;99.90
44731;DHT22;30458;47.448;19.032;2022-12-15T03:23:25;3.40;99.90
44731;DHT22;30458;47.448;19.032;2022-12-15T03:33:26;3.40;99.90
44731;DHT22;30458;47.448;19.032;2022-12-15T03:43:29;3.30;99.90
44731;DHT22;30458;47.448;19.032;2022-12-15T03:53:32;3.30;99.90
44731;DHT22;30458;47.448;19.032;2022-12-15T04:03:35;3.20;99.90
44731;DHT22;30458;47.448;19.032;2022-12-15T04:13:35;3.10;99.90
44731;DHT22;30458;47.448;19.032;2022-12-15T04:23:38;2.80;99.90
44731;DHT22;30458;47.448;19.032;2022-12-15T04:34:04;2.90;99.90
44731;DHT22;30458;47.448;19.032;2022-12-15T04:44:24;3.00;99.90
44731;DHT22;30458;47.448;19.032;2022-12-15T04:54:43;3.00;99.90
44731;DHT22;30458;47.448;19.032;2022-12-15T05:05:03;2.90;99.90
44731;DHT22;30458;47.448;19.032;2022-12-15T05:15:24;2.80;99.90
44731;DHT22;30458;47.448;19.032;2022-12-15T05:25:46;2.70;99.90
44731;DHT22;30458;47.448;19.032;2022-12-15T05:36:08;2.80;99.90
44731;DHT22;30458;47.448;19.032;2022-12-15T05:46:09;2.90;99.90
44731;DHT22;30458;47.448;19.032;2022-12-15T05:56:12;3.00;99.90
44731;DHT22;30458;47.448;19.032;2022-12-15T06:06:16;3.10;99.90
44731;DHT22;30458;47.448;19.032;2022-12-15T06:16:18;3.20;99.90
44731;DHT22;30458;47.448;19.032;2022-12-15T06:36:23;3.30;99.90
44731;DHT22;30458;47.448;19.032;2022-12-15T06:46:25;3.40;99.90
44731;DHT22;30458;47.448;19.032;2022-12-15T06:56:28;3.40;99.90
44731;DHT22;30458;47.448;19.032;2022-12-15T07:06:39;3.50;99.90
44731;DHT22;30458;47.448;19.032;2022-12-15T07:16:42;3.60;99.90
44731;DHT22;30458;47.448;19.032;2022-12-15T07:26:44;3.60;99.90
44731;DHT22;30458;47.448;19.032;2022-12-15T07:36:45;3.50;99.90
44731;DHT22;30458;47.448;19.032;2022-12-15T07:46:48;3.40;99.90
44731;DHT22;30458;47.448;19.032;2022-12-15T07:56:49;3.30;99.90
44731;DHT22;30458;47.448;19.032;2022-12-15T08:06:58;3.50;99.90
44731;DHT22;30458;47.448;19.032;2022-12-15T08:17:01;3.20;99.90
44731;DHT22;30458;47.448;19.032;2022-12-15T08:27:01;3.30;99.90
44731;DHT22;30458;47.448;19.032;2022-12-15T08:37:04;3.30;99.90
44731;DHT22;30458;47.448;19.032;2022-12-15T08:47:08;3.10;99.90
44731;DHT22;30458;47.448;19.032;2022-12-15T08:57:08;3.50;99.90
44731;DHT22;30458;47.448;19.032;2022-12-15T09:07:11;3.70;99.90
44731;DHT22;30458;47.448;19.032;2022-12-15T09:17:13;3.60;99.90
44731;DHT22;30458;47.448;19.032;2022-12-15T09:27:13;3.90;99.90
44731;DHT22;30458;47.448;19.032;2022-12-15T09:37:14;4.00;99.90
44731;DHT22;30458;47.448;19.032;2022-12-15T09:47:32;4.30;99.90
44731;DHT22;30458;47.448;19.032;2022-12-15T09:57:55;4.30;99.90
44731;DHT22;30458;47.448;19.032;2022-12-15T10:07:58;4.40;99.90
44731;DHT22;30458;47.448;19.032;2022-12-15T10:18:05;4.20;99.90
44731;DHT22;30458;47.448;19.032;2022-12-15T10:38:21;4.30;99.90
44731;DHT22;30458;47.448;19.032;2022-12-15T10:48:23;4.40;99.90
44731;DHT22;30458;47.448;19.032;2022-12-15T10:58:25;4.40;99.90
44731;DHT22;30458;47.448;19.032;2022-12-15T11:08:28;4.40;99.90
44731;DHT22;30458;47.448;19.032;2022-12-15T11:18:40;4.60;99.90
44731;DHT22;30458;47.448;19.032;2022-12-15T11:28:47;4.70;99.90
44731;DHT22;30458;47.448;19.032;2022-12-15T11:39:01;4.80;99.90
44731;DHT22;30458;47.448;19.032;2022-12-15T12:19:44;4.80;99.90
44731;DHT22;30458;47.448;19.032;2022-12-15T12:29:54;5.00;99.90
44731;DHT22;30458;47.448;19.032;2022-12-15T12:40:06;5.10;99.90
44731;DHT22;30458;47.448;19.032;2022-12-15T12:50:19;5.20;99.90
44731;DHT22;30458;47.448;19.032;2022-12-15T13:00:28;5.20;99.90
44731;DHT22;30458;47.448;19.032;2022-12-15T13:10:30;5.20;99.90
44731;DHT22;30458;47.448;19.032;2022-12-15T13:20:33;5.10;99.90
44731;DHT22;30458;47.448;19.032;2022-12-15T13:30:35;5.10;99.90
44731;DHT22;30458;47.448;19.032;2022-12-15T13:50:47;5.00;99.90
44731;DHT22;30458;47.448;19.032;2022-12-15T14:00:54;5.00;99.90
44731;DHT22;30458;47.448;19.032;2022-12-15T14:10:59;4.80;99.90
44731;DHT22;30458;47.448;19.032;2022-12-15T14:21:04;4.80;99.90
44731;DHT22;30458;47.448;19.032;2022-12-15T14:41:39;5.00;99.90
44731;DHT22;30458;47.448;19.032;2022-12-15T14:51:47;5.00;99.90
44731;DHT22;30458;47.448;19.032;2022-12-15T15:01:53;5.00;99.90
44731;DHT22;30458;47.448;19.032;2022-12-15T15:12:13;5.00;99.90
44731;DHT22;30458;47.448;19.032;2022-12-15T15:22:41;4.90;99.90
44731;DHT22;30458;47.448;19.032;2022-12-15T15:32:50;4.90;99.90
44731;DHT22;30458;47.448;19.032;2022-12-15T15:42:51;4.90;99.90
44731;DHT22;30458;47.448;19.032;2022-12-15T15:52:52;4.90;99.90
44731;DHT22;30458;47.448;19.032;2022-12-15T16:02:53;4.70;99.90
44731;DHT22;30458;47.448;19.032;2022-12-15T16:12:56;4.80;99.90
44731;DHT22;30458;47.448;19.032;2022-12-15T16:23:00;4.80;99.90
44731;DHT22;30458;47.448;19.032;2022-12-15T16:33:01;4.80;99.90
44731;DHT22;30458;47.448;19.032;2022-12-15T16:43:08;4.70;99.90
44731;DHT22;30458;47.448;19.032;2022-12-15T16:53:31;4.70;99.90
44731;DHT22;30458;47.448;19.032;2022-12-15T17:03:34;4.70;99.90
44731;DHT22;30458;47.448;19.032;2022-12-15T17:13:37;4.70;99.90
44731;DHT22;30458;47.448;19.032;2022-12-15T17:23:39;4.80;99.90
44731;DHT22;30458;47.448;19.032;2022-12-15T17:33:43;4.80;99.90
44731;DHT22;30458;47.448;19.032;2022-12-15T17:43:44;4.80;99.90
44731;DHT22;30458;47.448;19.032;2022-12-15T17:53:48;4.70;99.90
44731;DHT22;30458;47.448;19.032;2022-12-15T18:03:51;4.60;99.90
44731;DHT22;30458;47.448;19.032;2022-12-15T18:13:55;4.50;99.90
44731;DHT22;30458;47.448;19.032;2022-12-15T18:23:56;4.50;99.90
44731;DHT22;30458;47.448;19.032;2022-12-15T18:33:56;4.50;99.90
44731;DHT22;30458;47.448;19.032;2022-12-15T18:43:57;4.60;99.90
44731;DHT22;30458;47.448;19.032;2022-12-15T18:54:01;4.70;99.90
44731;DHT22;30458;47.448;19.032;2022-12-15T19:04:01;4.70;99.90
44731;DHT22;30458;47.448;19.032;2022-12-15T19:14:02;4.70;99.90
44731;DHT22;30458;47.448;19.032;2022-12-15T19:24:10;4.60;99.90
44731;DHT22;30458;47.448;19.032;2022-12-15T19:34:14;4.60;99.90
44731;DHT22;30458;47.448;19.032;2022-12-15T19:44:15;4.70;99.90
44731;DHT22;30458;47.448;19.032;2022-12-15T19:54:20;4.70;99.90
44731;DHT22;30458;47.448;19.032;2022-12-15T20:04:21;4.70;99.90
44731;DHT22;30458;47.448;19.032;2022-12-15T20:14:23;4.70;99.90
44731;DHT22;30458;47.448;19.032;2022-12-15T20:24:28;4.60;99.90
44731;DHT22;30458;47.448;19.032;2022-12-15T20:34:29;4.60;99.90
44731;DHT22;30458;47.448;19.032;2022-12-15T20:44:30;4.60;99.90
44731;DHT22;30458;47.448;19.032;2022-12-15T20:54:33;4.70;99.90
44731;DHT22;30458;47.448;19.032;2022-12-15T21:04:34;4.60;99.90
44731;DHT22;30458;47.448;19.032;2022-12-15T21:14:34;4.60;99.90
44731;DHT22;30458;47.448;19.032;2022-12-15T21:24:35;4.60;99.90
44731;DHT22;30458;47.448;19.032;2022-12-15T21:34:36;4.60;99.90
44731;DHT22;30458;47.448;19.032;2022-12-15T21:44:39;4.60;99.90
44731;DHT22;30458;47.448;19.032;2022-12-15T21:54:41;4.60;99.90
44731;DHT22;30458;47.448;19.032;2022-12-15T22:04:41;4.60;99.90
44731;DHT22;30458;47.448;19.032;2022-12-15T22:14:42;4.60;99.90
44731;DHT22;30458;47.448;19.032;2022-12-15T22:24:48;4.50;99.90
44731;DHT22;30458;47.448;19.032;2022-12-15T22:34:51;4.60;99.90
44731;DHT22;30458;47.448;19.032;2022-12-15T22:44:53;4.70;99.90
44731;DHT22;30458;47.448;19.032;2022-12-15T22:54:55;4.70;99.90
44731;DHT22;30458;47.448;19.032;2022-12-15T23:05:00;4.70;99.90
44731;DHT22;30458;47.448;19.032;2022-12-15T23:15:01;4.70;99.90
44731;DHT22;30458;47.448;19.032;2022-12-15T23:25:22;4.70;99.90
44731;DHT22;30458;47.448;19.032;2022-12-15T23:35:23;4.70;99.90
44731;DHT22;30458;47.448;19.032;2022-12-15T23:45:26;4.70;99.90
44731;DHT22;30458;47.448;19.032;2022-12-15T23:55:30;4.70;99.90
